Zanesville Municipal Airport
KZZV : rendu visible

Aérodrome :











RETROUVEZ-NOUS SUR...

 
LOGIN :

S'inscrire | Disclaimer

   EN    FR    IT 

 









Légende :    VFR   VFR Marginal   IFR   IFR Intensif   IFR Très Intensif
Visi : 
Plafond : 
>= 8 km
>= 3000ft
5 à 8 km
1000 à 3000 ft
1500m à 5 km
500 à 1000 ft
800 à 1500m
200 à 500 ft
< 800m
< 200 ft
Symboles :   Orages  Brouillard  Fortes neiges  Fortes précipitations  Vent > 20 kt






- Altitude de l'aérodrome : 900 ft


KZZV - Zanesville Municipal

DERNIER METAR :
  • 241453Z AUTO 12006KT 10SM -RA BKN055 OVC070 07/05 A3001 RMK AO2 SLP165 P0006 60019 T00670050 58017

METARs EXPIRÉS :
  • 241353Z AUTO 10007KT 9SM -RA OVC060 06/04 A3003 RMK AO2 SLP172 P0006 T00560039
  • 241253Z AUTO 11006KT 7SM -RA OVC048 05/03 A3004 RMK AO2 SLP178 P0007 T00500033

TAF KZZV
Valide du 24 à 13h jusqu'au 25 à 12h UTC


241254Z 2413/2512 14005KT P6SM -RA OVC040 WS020/16040KT
FM241600 13009G19KT 4SM -RA BR OVC020 WS020/15040KT
FM241900 13009G17KT 2SM SHRA BR OVC008 WS020/15040KT
FM250400 19006KT 5SM BR OVC009



MET'MAP, la Météo Aéronautique d'un coup d'oeil ! - Copyright ORBIFLY Décembre 2007 - Disclaimer

ORBIFLY MET'MAP TEAM :

Programmation & Développement : Alexandra Zaïnal
Sur une idée originale de : Baudouin d'Aumeries
Assistance à la programmation : Marc-Olivier Méhu
Soutien technique & logistique : Manuel Goepfert

Contact : metmap@orbifly.com




SOURCES & CREDITS :

   NOAA       Earth
Advisory